Inicio METAR Ruta Wind Satelite

Informe Meteorológico

Fecha: 2024/06/18 18:50:59 Local
2024.06.18 23:50 UTC


Operación:
SKGO 182300Z AUTO 24005KT 200V260 CAVOK 23/19 Q1012 =